Terminal Aerodrome Forecast
Issued by NWS Grand Forks, ND

Home | Current Version | Previous Version | Text Only | Print | Product List | Glossary Off
Versions: 1 2 3 4 5 6 7 8 9 10 11 12 13 14 15 16 17 18 19 20 21 22 23 24 25 26 27

741
FTUS43 KFGF 141139
TAFFAR
TAF
KFAR 141139Z 1412/1512 VRB03KT P6SM OVC013
     FM141600 34007KT P6SM BKN015
     FM142000 33015G23KT P6SM OVC020
     FM150000 33009KT P6SM BKN030=

USA.gov is the U.S. government's official web portal to all federal, state and local government web resources and services.